Time;durP1;ratioP1;P1;durP2;ratioP2;P2;SDS_P1;SDS_P2;PMS_P1;PMS_P2;Temp;Humidity;BMP_temperature;BMP_pressure;BME280_temperature;BME280_humidity;BME280_pressure;Samples;Min_cycle;Max_cycle;Signal;HPM_P1;HPM_P2
2022/07/29 00:01:01;;;;;;;4.60;1.20;;;15.20;99.90;;;;;;5008661;28;20041;-77
2022/07/29 00:03:28;;;;;;;5.82;1.40;;;15.20;99.90;;;;;;4989554;28;20058;-78
2022/07/29 00:05:53;;;;;;;4.30;1.48;;;15.20;99.90;;;;;;5000151;28;20448;-78
2022/07/29 00:08:19;;;;;;;2.60;1.40;;;15.20;99.90;;;;;;4994954;28;20208;-80
2022/07/29 00:10:45;;;;;;;4.70;1.88;;;15.20;99.90;;;;;;5008463;28;20141;-78
2022/07/29 00:13:11;;;;;;;3.28;1.20;;;15.20;99.90;;;;;;4984535;28;20394;-79
2022/07/29 00:15:37;;;;;;;3.50;1.42;;;15.20;99.90;;;;;;4994113;28;20091;-79
2022/07/29 00:18:03;;;;;;;2.65;1.42;;;15.20;99.90;;;;;;4969510;28;20052;-78
2022/07/29 00:20:29;;;;;;;3.13;1.40;;;15.20;99.90;;;;;;5006921;28;20092;-78
2022/07/29 00:22:55;;;;;;;4.40;1.60;;;15.20;99.90;;;;;;5002808;28;20577;-78
2022/07/29 00:25:20;;;;;;;4.40;1.60;;;15.10;99.90;;;;;;5006066;28;20068;-79
2022/07/29 00:27:46;;;;;;;3.70;1.50;;;15.20;99.90;;;;;;5015836;28;20073;-78
2022/07/29 00:30:12;;;;;;;4.13;1.88;;;15.20;99.90;;;;;;4994859;28;20045;-77
2022/07/29 00:32:38;;;;;;;3.55;1.58;;;15.20;99.90;;;;;;5019782;28;20125;-78
2022/07/29 00:37:50;;;;;;;4.63;1.70;;;15.10;99.90;;;;;;4995815;28;20034;-78
2022/07/29 00:40:16;;;;;;;3.35;1.38;;;15.10;99.90;;;;;;4989817;28;20053;-77
2022/07/29 00:42:43;;;;;;;5.40;1.90;;;15.10;99.90;;;;;;5011310;28;20137;-79
2022/07/29 00:45:09;;;;;;;3.72;1.65;;;15.10;99.90;;;;;;4995922;28;20046;-78
2022/07/29 00:47:35;;;;;;;2.70;1.30;;;15.10;99.90;;;;;;4999052;28;20049;-77
2022/07/29 00:50:01;;;;;;;3.47;1.50;;;15.10;99.90;;;;;;5017966;28;20416;-79
2022/07/29 00:52:27;;;;;;;2.97;1.90;;;15.10;99.90;;;;;;4996502;28;20056;-77
2022/07/29 00:54:56;;;;;;;3.47;1.75;;;15.10;99.90;;;;;;4983045;28;20097;-78
2022/07/29 00:57:22;;;;;;;4.80;1.73;;;15.10;99.90;;;;;;5009633;28;20065;-78
2022/07/29 00:59:49;;;;;;;3.38;1.80;;;15.10;99.90;;;;;;4997999;28;20101;-79
2022/07/29 01:02:17;;;;;;;5.45;2.13;;;15.00;99.90;;;;;;5019295;28;20064;-78
2022/07/29 01:04:43;;;;;;;4.32;2.15;;;15.10;99.90;;;;;;5026675;28;20624;-79
2022/07/29 01:07:10;;;;;;;4.40;1.80;;;15.10;99.90;;;;;;5015222;28;20133;-78
2022/07/29 01:09:37;;;;;;;4.32;2.05;;;15.00;99.90;;;;;;4981050;28;20045;-79
2022/07/29 01:12:04;;;;;;;4.10;2.00;;;15.00;99.90;;;;;;4998461;28;20046;-78
2022/07/29 01:14:31;;;;;;;4.72;2.33;;;15.00;99.90;;;;;;4999736;28;21439;-78
2022/07/29 01:17:02;;;;;;;4.18;2.10;;;15.00;99.90;;;;;;4983106;28;20077;-77
2022/07/29 01:19:51;;;;;;;4.65;2.25;;;15.00;99.90;;;;;;5023931;28;20053;-79
2022/07/29 01:22:35;;;;;;;3.90;2.10;;;15.00;99.90;;;;;;5002995;28;20045;-78
2022/07/29 01:25:17;;;;;;;3.22;2.08;;;14.90;99.90;;;;;;4996477;28;20045;-79
2022/07/29 01:28:15;;;;;;;4.68;2.17;;;14.90;99.90;;;;;;5019696;28;20621;-79
2022/07/29 01:30:44;;;;;;;3.83;2.20;;;14.90;99.90;;;;;;4981802;28;20099;-79
2022/07/29 01:33:48;;;;;;;4.32;1.95;;;14.90;99.90;;;;;;5005382;28;20496;-78
2022/07/29 01:36:13;;;;;;;4.28;2.00;;;14.90;99.90;;;;;;5014773;28;20045;-79
2022/07/29 01:38:42;;;;;;;3.75;2.03;;;14.90;99.90;;;;;;5002997;28;20116;-77
2022/07/29 01:41:15;;;;;;;3.22;2.00;;;14.90;99.90;;;;;;4987314;28;20057;-78
2022/07/29 01:43:48;;;;;;;3.80;1.77;;;14.90;99.90;;;;;;5019214;28;20037;-78
2022/07/29 01:46:19;;;;;;;4.32;1.92;;;15.00;99.90;;;;;;5023057;28;20526;-79
2022/07/29 01:48:48;;;;;;;5.35;1.90;;;14.90;99.90;;;;;;5000580;28;20042;-78
2022/07/29 01:51:41;;;;;;;4.70;2.03;;;15.00;99.90;;;;;;4999526;28;20586;-80
2022/07/29 01:54:45;;;;;;;4.00;1.85;;;15.00;99.90;;;;;;5023631;28;20077;-79
2022/07/29 01:57:18;;;;;;;3.28;1.60;;;15.00;99.90;;;;;;5003482;28;20037;-78
2022/07/29 01:59:46;;;;;;;3.15;1.80;;;15.00;99.90;;;;;;5008196;28;20072;-77
2022/07/29 02:02:15;;;;;;;3.97;1.60;;;15.00;99.90;;;;;;5014872;28;20156;-78
2022/07/29 02:04:45;;;;;;;3.05;1.50;;;15.00;99.90;;;;;;5023160;28;20045;-78
2022/07/29 02:07:19;;;;;;;4.95;1.58;;;15.00;99.90;;;;;;5011752;28;20048;-78
2022/07/29 02:09:47;;;;;;;3.63;1.98;;;15.00;99.90;;;;;;5018272;28;20180;-78
2022/07/29 02:12:16;;;;;;;4.75;1.55;;;15.00;99.90;;;;;;5005571;28;20048;-77
2022/07/29 02:14:47;;;;;;;4.50;1.75;;;15.00;99.90;;;;;;5013745;28;20050;-76
2022/07/29 02:17:17;;;;;;;5.03;1.85;;;15.00;99.90;;;;;;5022490;28;20049;-78
2022/07/29 02:19:44;;;;;;;;;;;15.00;99.90;;;;;;5001045;28;20057;-79
2022/07/29 02:22:12;;;;;;;4.57;1.50;;;15.00;99.90;;;;;;5002548;28;19921;-77
2022/07/29 02:24:40;;;;;;;4.25;1.60;;;14.90;99.90;;;;;;5012462;28;20496;-78
2022/07/29 02:27:08;;;;;;;6.43;2.05;;;14.90;99.90;;;;;;5003312;28;20037;-78
2022/07/29 02:29:36;;;;;;;5.47;1.70;;;15.00;99.90;;;;;;5004170;28;20041;-78
2022/07/29 02:32:03;;;;;;;3.78;1.50;;;14.90;99.90;;;;;;5019603;28;20120;-77
2022/07/29 02:34:30;;;;;;;3.13;1.40;;;15.00;99.90;;;;;;5013473;28;20045;-78
2022/07/29 02:36:55;;;;;;;5.25;1.50;;;15.00;99.90;;;;;;4991396;28;20041;-78
2022/07/29 02:39:24;;;;;;;4.68;2.40;;;15.00;99.90;;;;;;4999059;28;20053;-79
2022/07/29 02:42:03;;;;;;;3.47;1.85;;;15.00;99.90;;;;;;5022379;28;20057;-79
2022/07/29 02:44:29;;;;;;;4.72;1.98;;;15.00;99.90;;;;;;5021164;28;20041;-77
2022/07/29 02:47:08;;;;;;;3.95;1.70;;;15.00;99.90;;;;;;5003083;28;20393;-78
2022/07/29 02:49:48;;;;;;;4.78;1.63;;;15.00;99.90;;;;;;5010628;28;20057;-78
2022/07/29 02:52:23;;;;;;;5.18;1.77;;;15.00;99.90;;;;;;5017212;28;20046;-78
2022/07/29 02:54:59;;;;;;;4.43;1.83;;;15.00;99.90;;;;;;5018547;28;20136;-77
2022/07/29 02:57:36;;;;;;;3.40;1.40;;;15.00;99.90;;;;;;5013630;28;20111;-77
2022/07/29 03:00:06;;;;;;;3.85;1.70;;;15.00;99.90;;;;;;5020409;28;20053;-77
2022/07/29 03:02:39;;;;;;;4.30;1.65;;;15.00;99.90;;;;;;4998734;28;20587;-78
2022/07/29 03:05:09;;;;;;;3.95;1.67;;;14.90;99.90;;;;;;5012327;28;20128;-79
2022/07/29 03:07:36;;;;;;;4.68;1.75;;;14.90;99.90;;;;;;5014560;28;20496;-78
2022/07/29 03:10:03;;;;;;;4.53;1.70;;;14.90;99.90;;;;;;5011331;28;20041;-79
2022/07/29 03:12:29;;;;;;;3.70;1.60;;;14.90;99.90;;;;;;5018820;28;20084;-77
2022/07/29 03:14:57;;;;;;;3.20;1.50;;;14.90;99.90;;;;;;4999703;28;20046;-78
2022/07/29 03:17:26;;;;;;;4.32;1.65;;;15.00;99.90;;;;;;4999084;28;20393;-78
2022/07/29 03:19:52;;;;;;;3.75;1.67;;;14.90;99.90;;;;;;4994423;28;20113;-79
2022/07/29 03:22:20;;;;;;;4.53;1.70;;;15.00;99.90;;;;;;5000156;28;20378;-79
2022/07/29 03:24:46;;;;;;;5.63;1.80;;;14.90;99.90;;;;;;5019188;28;20511;-78
2022/07/29 03:27:12;;;;;;;8.30;2.22;;;14.90;99.90;;;;;;4998455;28;20045;-78
2022/07/29 03:29:38;;;;;;;4.43;1.83;;;14.90;99.90;;;;;;4979702;28;20096;-78
2022/07/29 03:32:05;;;;;;;3.30;1.50;;;14.90;99.90;;;;;;5016844;28;20047;-79
2022/07/29 03:34:31;;;;;;;4.28;1.50;;;14.90;99.90;;;;;;4985451;28;20041;-78
2022/07/29 03:36:56;;;;;;;5.70;1.95;;;14.90;99.90;;;;;;5012168;28;20038;-79
2022/07/29 03:39:27;;;;;;;4.93;1.60;;;14.90;99.90;;;;;;5012170;28;20076;-78
2022/07/29 03:41:59;;;;;;;4.50;1.75;;;14.90;99.90;;;;;;5020569;28;20044;-78
2022/07/29 03:44:27;;;;;;;4.78;1.77;;;14.90;99.90;;;;;;5008471;28;20603;-77
2022/07/29 03:46:59;;;;;;;4.65;1.60;;;14.90;99.90;;;;;;5010591;28;20488;-77
2022/07/29 03:49:30;;;;;;;3.22;1.75;;;14.80;99.90;;;;;;5016519;28;20042;-77
2022/07/29 03:51:56;;;;;;;5.15;1.92;;;14.80;99.90;;;;;;5022917;28;20056;-78
2022/07/29 03:54:26;;;;;;;5.75;1.50;;;14.80;99.90;;;;;;4971120;28;20452;-77
2022/07/29 03:56:54;;;;;;;5.45;1.70;;;14.80;99.90;;;;;;4997551;28;20096;-78
2022/07/29 03:59:21;;;;;;;3.53;1.73;;;14.80;99.90;;;;;;4994171;28;20073;-77
2022/07/29 04:01:48;;;;;;;3.67;1.73;;;14.80;99.90;;;;;;4996865;28;20500;-77
2022/07/29 04:04:14;;;;;;;3.05;1.45;;;14.70;99.90;;;;;;5002546;28;20053;-77
2022/07/29 04:06:45;;;;;;;6.07;2.22;;;14.70;99.90;;;;;;5011354;28;20049;-76
2022/07/29 04:09:11;;;;;;;5.95;2.10;;;14.70;99.90;;;;;;5020199;28;20087;-78
2022/07/29 04:11:41;;;;;;;5.28;1.73;;;14.70;99.90;;;;;;4997865;28;20136;-77
2022/07/29 04:14:10;;;;;;;7.43;2.20;;;14.80;99.90;;;;;;5015432;28;20499;-77
2022/07/29 04:16:36;;;;;;;4.32;1.67;;;14.70;99.90;;;;;;5014730;28;20052;-77
2022/07/29 04:19:02;;;;;;;6.30;2.10;;;14.70;99.90;;;;;;5004419;28;20049;-77
2022/07/29 04:21:28;;;;;;;3.80;1.70;;;14.70;99.90;;;;;;5020597;28;20096;-78
2022/07/29 04:23:53;;;;;;;3.78;1.63;;;14.70;99.90;;;;;;5007365;28;20095;-77
2022/07/29 04:26:20;;;;;;;3.78;1.77;;;14.70;99.90;;;;;;5023309;28;20049;-79
2022/07/29 04:28:46;;;;;;;6.22;1.88;;;14.70;99.90;;;;;;5024304;28;20084;-77
2022/07/29 04:31:12;;;;;;;3.78;1.90;;;14.70;99.90;;;;;;5000361;28;20061;-78
2022/07/29 04:33:39;;;;;;;4.55;1.90;;;14.70;99.90;;;;;;5016578;28;20489;-78
2022/07/29 04:36:05;;;;;;;3.92;2.10;;;14.70;99.90;;;;;;5005737;28;20042;-78
2022/07/29 04:38:31;;;;;;;6.47;2.08;;;14.60;99.90;;;;;;5022563;28;20057;-79
2022/07/29 04:40:57;;;;;;;4.20;1.75;;;14.60;99.90;;;;;;4977404;28;20053;-80
2022/07/29 04:43:25;;;;;;;5.80;1.92;;;14.70;99.90;;;;;;5010669;28;20060;-79
2022/07/29 04:45:51;;;;;;;6.18;1.98;;;14.70;99.90;;;;;;5022218;28;20503;-78
2022/07/29 04:48:17;;;;;;;3.97;2.03;;;14.60;99.90;;;;;;4993895;28;20037;-78
2022/07/29 04:50:44;;;;;;;5.45;2.10;;;14.60;99.90;;;;;;5027568;28;20058;-79
2022/07/29 04:53:09;;;;;;;4.85;1.83;;;14.60;99.90;;;;;;5026654;28;20046;-79
2022/07/29 04:55:36;;;;;;;6.32;2.13;;;14.60;99.90;;;;;;5020999;28;20034;-79
2022/07/29 04:58:02;;;;;;;5.57;2.20;;;14.60;99.90;;;;;;5004057;28;20049;-79
2022/07/29 05:00:27;;;;;;;5.85;2.20;;;14.60;99.90;;;;;;5006048;28;20045;-79
2022/07/29 05:02:53;;;;;;;6.03;2.35;;;14.60;99.90;;;;;;5009244;28;20045;-78
2022/07/29 05:05:23;;;;;;;4.15;1.92;;;14.60;99.90;;;;;;5008695;28;20050;-78
2022/07/29 05:07:48;;;;;;;5.03;1.85;;;14.60;99.90;;;;;;5022243;28;20118;-78
2022/07/29 05:10:14;;;;;;;6.60;2.42;;;14.60;99.90;;;;;;5010276;28;20113;-78
2022/07/29 05:12:40;;;;;;;5.88;1.83;;;14.60;99.90;;;;;;4990514;28;20122;-79
2022/07/29 05:15:06;;;;;;;6.07;2.30;;;14.60;99.90;;;;;;5018228;28;20576;-78
2022/07/29 05:17:32;;;;;;;5.65;2.20;;;14.60;99.90;;;;;;5021653;28;20053;-79
2022/07/29 05:19:58;;;;;;;3.95;1.98;;;14.60;99.90;;;;;;4983392;28;20862;-79
2022/07/29 05:22:24;;;;;;;3.80;2.03;;;14.60;99.90;;;;;;5005595;28;20062;-79
2022/07/29 05:24:49;;;;;;;4.85;2.17;;;14.60;99.90;;;;;;5024495;28;20079;-79
2022/07/29 05:27:15;;;;;;;6.55;2.13;;;14.60;99.90;;;;;;4996968;28;20057;-79
2022/07/29 05:29:41;;;;;;;5.30;2.15;;;14.60;99.90;;;;;;5006097;28;20041;-79
2022/07/29 05:32:07;;;;;;;4.13;1.98;;;14.70;99.90;;;;;;5010506;28;20079;-79
2022/07/29 05:34:33;;;;;;;5.63;2.22;;;14.60;99.90;;;;;;4998419;28;20045;-78
2022/07/29 05:36:59;;;;;;;5.07;2.15;;;14.60;99.90;;;;;;5008991;28;20668;-79
2022/07/29 05:39:25;;;;;;;4.15;2.50;;;14.60;99.90;;;;;;5014618;28;20050;-79
2022/07/29 05:41:51;;;;;;;4.85;2.28;;;14.70;99.90;;;;;;5005675;28;20045;-79
2022/07/29 05:44:17;;;;;;;4.95;2.47;;;14.70;99.90;;;;;;5007211;28;20037;-79
2022/07/29 05:46:43;;;;;;;4.30;2.40;;;14.70;99.90;;;;;;4990556;28;20045;-79
2022/07/29 05:49:08;;;;;;;6.43;2.20;;;14.70;99.90;;;;;;5006394;28;20613;-79
2022/07/29 05:51:34;;;;;;;5.22;2.50;;;14.70;99.90;;;;;;5016863;28;20125;-79
2022/07/29 05:54:01;;;;;;;4.43;2.30;;;14.70;99.90;;;;;;5026352;28;20041;-79
2022/07/29 05:56:27;;;;;;;6.35;2.55;;;14.80;99.90;;;;;;5018690;28;20053;-79
2022/07/29 05:58:53;;;;;;;6.85;2.58;;;14.80;99.90;;;;;;5015942;28;20052;-78
2022/07/29 06:01:20;;;;;;;4.95;2.15;;;14.80;99.90;;;;;;5025446;28;20049;-78
2022/07/29 06:03:45;;;;;;;5.05;2.28;;;14.80;99.90;;;;;;5003541;28;20037;-79
2022/07/29 06:06:11;;;;;;;4.97;2.13;;;14.80;99.90;;;;;;5021857;28;20056;-79
2022/07/29 06:08:37;;;;;;;4.88;2.20;;;14.80;99.90;;;;;;5020286;28;20049;-78
2022/07/29 06:11:04;;;;;;;6.30;2.60;;;14.80;99.90;;;;;;5010989;28;20370;-79
2022/07/29 06:13:30;;;;;;;6.00;2.30;;;14.90;99.90;;;;;;5018403;28;20042;-79
2022/07/29 06:15:56;;;;;;;4.88;1.90;;;14.90;99.90;;;;;;5019487;28;20355;-79
2022/07/29 06:18:28;;;;;;;5.57;2.53;;;14.90;99.90;;;;;;5022919;28;20457;-79
2022/07/29 06:20:54;;;;;;;5.75;2.22;;;15.00;99.90;;;;;;4989747;28;20081;-79
2022/07/29 06:23:20;;;;;;;7.10;2.17;;;15.00;99.90;;;;;;5003037;28;20081;-79
2022/07/29 06:25:46;;;;;;;4.43;2.17;;;15.00;99.90;;;;;;5008284;28;20044;-79
2022/07/29 06:28:12;;;;;;;6.22;2.22;;;15.10;99.90;;;;;;5006298;28;20056;-79
2022/07/29 06:30:39;;;;;;;6.07;2.63;;;15.20;99.90;;;;;;5006232;28;20049;-79
2022/07/29 06:33:05;;;;;;;4.60;2.08;;;15.20;99.90;;;;;;5000481;28;20167;-79
2022/07/29 06:35:34;;;;;;;6.20;2.42;;;15.30;99.90;;;;;;4996722;28;20200;-79
2022/07/29 06:38:01;;;;;;;6.10;2.70;;;15.30;99.90;;;;;;4998972;28;20037;-79
2022/07/29 06:43:11;;;;;;;6.30;2.20;;;15.40;99.90;;;;;;5002448;28;20046;-79
2022/07/29 06:45:40;;;;;;;6.65;2.42;;;15.50;99.90;;;;;;5004902;28;20033;-79
2022/07/29 06:48:06;;;;;;;10.02;3.53;;;15.60;99.90;;;;;;5001083;28;20041;-79
2022/07/29 06:50:32;;;;;;;6.85;2.15;;;15.70;99.90;;;;;;4998042;28;20111;-80
2022/07/29 06:52:58;;;;;;;5.00;2.30;;;15.70;99.90;;;;;;5015393;28;20056;-79
2022/07/29 06:55:24;;;;;;;4.75;2.00;;;15.70;99.90;;;;;;5016220;28;20137;-79
2022/07/29 06:57:51;;;;;;;5.97;2.53;;;15.70;99.90;;;;;;5010375;28;20094;-77
2022/07/29 07:00:19;;;;;;;5.03;2.20;;;15.70;99.90;;;;;;4995784;28;20037;-77
2022/07/29 07:02:45;;;;;;;7.10;2.28;;;15.70;99.90;;;;;;5011866;28;20112;-76
2022/07/29 07:05:11;;;;;;;4.28;2.30;;;15.70;99.90;;;;;;4977742;28;20454;-77
2022/07/29 07:07:40;;;;;;;6.00;2.08;;;15.70;99.90;;;;;;4998290;28;20152;-78
2022/07/29 07:10:09;;;;;;;5.32;2.65;;;15.70;99.90;;;;;;4998345;28;20050;-75
2022/07/29 07:12:34;;;;;;;4.70;2.53;;;15.80;99.90;;;;;;5012607;28;20061;-78
2022/07/29 07:15:00;;;;;;;7.82;2.50;;;15.80;99.90;;;;;;4995042;28;20037;-77
2022/07/29 07:17:26;;;;;;;5.32;2.10;;;15.80;99.90;;;;;;5010939;28;20119;-78
2022/07/29 07:19:52;;;;;;;4.57;2.20;;;15.80;99.90;;;;;;4996542;28;20176;-78
2022/07/29 07:22:18;;;;;;;5.60;2.55;;;15.80;99.90;;;;;;4999432;28;20049;-78
2022/07/29 07:24:43;;;;;;;3.70;2.30;;;15.80;99.90;;;;;;4993845;28;20151;-77
2022/07/29 07:27:09;;;;;;;4.40;2.50;;;15.90;99.90;;;;;;4995711;28;20049;-78
2022/07/29 07:29:36;;;;;;;5.00;2.42;;;15.90;99.90;;;;;;5016797;28;20111;-77
2022/07/29 07:32:05;;;;;;;4.45;2.17;;;15.90;99.90;;;;;;5018485;28;20393;-78
2022/07/29 07:34:30;;;;;;;7.28;2.90;;;15.90;99.90;;;;;;5029602;28;20049;-78
2022/07/29 07:36:56;;;;;;;5.80;2.78;;;15.90;99.90;;;;;;5001034;28;20064;-77
2022/07/29 07:39:25;;;;;;;4.18;2.45;;;16.00;99.90;;;;;;4996975;28;20167;-79
2022/07/29 07:41:52;;;;;;;5.00;2.65;;;16.00;99.90;;;;;;5000258;28;20129;-78
2022/07/29 07:44:18;;;;;;;7.88;2.28;;;16.00;99.90;;;;;;4998134;28;20239;-78
2022/07/29 07:46:44;;;;;;;6.50;2.88;;;16.00;99.90;;;;;;4981949;28;20583;-77
2022/07/29 07:49:10;;;;;;;5.47;2.50;;;16.10;99.90;;;;;;5003288;28;20128;-78
2022/07/29 07:51:36;;;;;;;7.05;2.30;;;16.20;99.90;;;;;;5013033;28;20128;-78
2022/07/29 07:54:02;;;;;;;4.85;2.47;;;16.20;99.90;;;;;;5018000;28;20064;-77
2022/07/29 07:56:28;;;;;;;6.25;2.40;;;16.20;99.90;;;;;;4998916;28;20563;-78
2022/07/29 07:58:54;;;;;;;7.90;2.20;;;16.30;99.90;;;;;;5002136;28;20037;-78
2022/07/29 08:01:22;;;;;;;7.35;2.40;;;16.20;99.90;;;;;;5003756;28;20060;-78
2022/07/29 08:03:49;;;;;;;4.60;2.30;;;16.30;99.90;;;;;;5020443;28;20037;-78
2022/07/29 08:06:15;;;;;;;5.40;2.45;;;16.40;99.90;;;;;;5016206;28;20162;-78
2022/07/29 08:08:41;;;;;;;5.63;2.55;;;16.40;99.90;;;;;;5013559;28;20049;-77
2022/07/29 08:11:07;;;;;;;7.43;2.70;;;16.40;99.90;;;;;;5021190;28;20080;-78
2022/07/29 08:13:32;;;;;;;6.82;2.80;;;16.40;99.90;;;;;;5015036;28;20091;-79
2022/07/29 08:16:11;;;;;;;6.63;2.72;;;16.40;99.90;;;;;;5016359;28;20500;-79
2022/07/29 08:18:37;;;;;;;6.28;2.75;;;16.50;99.90;;;;;;5010416;28;20049;-78
2022/07/29 08:21:04;;;;;;;3.63;2.45;;;16.50;99.90;;;;;;5000753;28;20500;-78
2022/07/29 08:23:39;;;;;;;5.60;2.45;;;16.60;99.90;;;;;;5006391;28;20045;-79
2022/07/29 08:26:10;;;;;;;6.40;2.53;;;16.60;99.90;;;;;;5005882;28;20130;-78
2022/07/29 08:28:39;;;;;;;5.60;2.13;;;16.70;99.90;;;;;;5005094;28;20277;-78
2022/07/29 08:31:06;;;;;;;6.75;2.28;;;16.80;99.90;;;;;;4999947;28;20042;-79
2022/07/29 08:33:32;;;;;;;4.72;2.30;;;16.90;99.90;;;;;;5005759;28;20045;-79
2022/07/29 08:35:59;;;;;;;6.97;2.53;;;17.00;99.90;;;;;;4998570;28;20044;-78
2022/07/29 08:38:26;;;;;;;5.10;2.67;;;17.10;99.90;;;;;;5010189;28;20061;-79
2022/07/29 08:40:55;;;;;;;6.60;2.75;;;17.20;99.90;;;;;;4999827;28;20034;-78
2022/07/29 08:43:20;;;;;;;8.25;2.83;;;17.30;99.90;;;;;;4988620;28;20049;-78
2022/07/29 08:45:49;;;;;;;5.70;2.78;;;17.30;99.90;;;;;;5019884;28;20060;-78
2022/07/29 08:48:18;;;;;;;5.82;2.90;;;17.40;99.90;;;;;;5015393;28;20061;-78
2022/07/29 08:50:45;;;;;;;10.10;3.30;;;17.30;99.90;;;;;;4999244;28;20116;-78
2022/07/29 08:53:13;;;;;;;8.13;3.35;;;17.30;99.90;;;;;;5017882;28;20373;-79
2022/07/29 08:55:47;;;;;;;8.90;3.20;;;17.30;99.90;;;;;;5014232;28;20133;-79
2022/07/29 08:58:15;;;;;;;5.95;2.90;;;17.30;99.90;;;;;;5020535;28;20046;-80
2022/07/29 09:00:44;;;;;;;4.80;2.65;;;17.40;99.90;;;;;;5006373;28;20069;-79
2022/07/29 09:03:15;;;;;;;5.78;2.70;;;17.40;99.90;;;;;;5022400;28;20030;-78
2022/07/29 09:05:42;;;;;;;5.50;2.70;;;17.40;99.90;;;;;;5013961;28;20042;-79
2022/07/29 09:08:09;;;;;;;5.47;2.50;;;17.50;99.90;;;;;;5023108;28;20450;-80
2022/07/29 09:10:35;;;;;;;6.28;3.45;;;17.50;99.90;;;;;;4970471;28;20045;-78
2022/07/29 09:13:04;;;;;;;6.40;3.00;;;17.50;99.90;;;;;;5017400;28;20124;-78
2022/07/29 09:15:31;;;;;;;5.13;2.60;;;17.50;99.90;;;;;;5016919;28;20479;-77
2022/07/29 09:17:58;;;;;;;5.15;2.80;;;17.40;99.90;;;;;;5009380;28;20120;-79
2022/07/29 09:20:24;;;;;;;7.18;2.60;;;17.40;99.90;;;;;;5019675;28;20574;-79
2022/07/29 09:22:53;;;;;;;6.70;3.05;;;17.40;99.90;;;;;;5023443;28;20050;-79
2022/07/29 09:25:35;;;;;;;5.35;2.40;;;17.40;99.90;;;;;;5003068;28;20064;-78
2022/07/29 09:28:16;;;;;;;7.55;3.30;;;17.40;99.90;;;;;;5024077;28;20045;-79
2022/07/29 09:30:52;;;;;;;6.93;2.83;;;17.40;99.90;;;;;;5003797;28;20056;-79
2022/07/29 09:33:20;;;;;;;6.80;2.75;;;17.30;99.90;;;;;;5002549;28;20128;-78
2022/07/29 09:35:45;;;;;;;7.93;3.00;;;17.30;99.90;;;;;;5003518;28;20049;-79
2022/07/29 09:38:13;;;;;;;6.07;2.60;;;17.30;99.90;;;;;;5017486;28;20056;-78
2022/07/29 09:40:39;;;;;;;6.40;2.78;;;17.30;99.90;;;;;;5019873;28;20057;-79
2022/07/29 09:43:12;;;;;;;6.28;2.75;;;17.30;99.90;;;;;;5034551;28;20056;-77
2022/07/29 09:45:39;;;;;;;9.77;3.08;;;17.30;99.90;;;;;;5005014;28;20092;-76
2022/07/29 09:48:17;;;;;;;7.28;2.60;;;17.40;99.90;;;;;;5019729;28;20045;-77
2022/07/29 09:50:49;;;;;;;4.90;2.65;;;17.40;99.90;;;;;;5021337;28;20214;-77
2022/07/29 09:53:37;;;;;;;6.57;2.67;;;17.40;99.90;;;;;;5003477;28;20045;-77
2022/07/29 09:56:04;;;;;;;6.70;3.15;;;17.40;99.90;;;;;;5015303;28;20457;-77
2022/07/29 09:58:32;;;;;;;7.57;2.60;;;17.40;99.90;;;;;;5006543;28;20555;-77
2022/07/29 10:00:58;;;;;;;5.93;2.67;;;17.40;99.90;;;;;;5005812;28;20052;-76
2022/07/29 10:03:24;;;;;;;7.47;2.92;;;17.40;99.90;;;;;;5007350;28;20124;-77
2022/07/29 10:06:10;;;;;;;6.90;3.05;;;17.50;99.90;;;;;;5015896;28;20050;-76
2022/07/29 10:08:37;;;;;;;8.18;3.85;;;17.60;99.90;;;;;;5019850;28;20100;-77
2022/07/29 10:11:17;;;;;;;7.35;2.65;;;17.60;99.90;;;;;;5006183;28;20037;-77
2022/07/29 10:13:46;;;;;;;5.10;2.97;;;17.60;99.90;;;;;;5001874;28;20053;-76
2022/07/29 10:16:13;;;;;;;8.48;3.20;;;17.70;99.90;;;;;;5022337;28;20057;-77
2022/07/29 10:18:43;;;;;;;;;;;17.70;99.90;;;;;;5021555;28;20175;-77
2022/07/29 10:21:16;;;;;;;6.18;2.90;;;17.70;99.90;;;;;;5006649;28;19980;-78
2022/07/29 10:23:46;;;;;;;7.97;3.58;;;17.70;99.90;;;;;;5020163;28;20038;-77
2022/07/29 10:26:14;;;;;;;6.75;3.33;;;17.70;99.90;;;;;;5007609;28;20125;-78
2022/07/29 10:28:39;;;;;;;10.45;3.70;;;17.80;99.90;;;;;;5016867;28;20408;-78
2022/07/29 10:31:13;;;;;;;9.23;3.67;;;17.80;99.90;;;;;;5005558;28;20041;-78
2022/07/29 10:34:17;;;;;;;9.02;3.40;;;17.90;99.90;;;;;;5022592;28;20408;-78
2022/07/29 10:36:59;;;;;;;9.18;3.38;;;17.90;99.90;;;;;;4977841;28;20042;-78
2022/07/29 10:39:39;;;;;;;6.50;3.25;;;18.10;99.90;;;;;;5013164;28;20155;-78
2022/07/29 10:42:16;;;;;;;6.40;3.38;;;18.20;99.90;;;;;;5040533;28;20504;-78
2022/07/29 10:44:43;;;;;;;6.95;3.25;;;18.30;99.90;;;;;;5018056;28;20053;-78
2022/07/29 10:47:26;;;;;;;7.55;3.85;;;18.50;99.90;;;;;;5022679;28;20496;-79
2022/07/29 10:50:00;;;;;;;9.13;4.25;;;18.70;99.90;;;;;;5021429;28;20392;-79
2022/07/29 10:52:49;;;;;;;6.90;3.97;;;18.80;99.90;;;;;;5024633;28;20108;-78
2022/07/29 10:55:44;;;;;;;7.13;3.47;;;19.00;99.90;;;;;;5017666;28;20484;-78
2022/07/29 10:58:25;;;;;;;5.82;3.45;;;19.20;99.90;;;;;;5015984;28;20250;-80
2022/07/29 11:00:54;;;;;;;5.25;3.15;;;19.40;99.90;;;;;;5000540;28;20508;-78
2022/07/29 11:03:51;;;;;;;7.13;3.28;;;19.60;99.90;;;;;;5013048;28;20403;-79
2022/07/29 11:06:18;;;;;;;5.65;3.22;;;19.80;99.90;;;;;;5000824;28;20034;-78
2022/07/29 11:08:44;;;;;;;6.32;3.10;;;20.00;99.90;;;;;;5003092;28;20504;-77
2022/07/29 11:11:19;;;;;;;8.73;3.50;;;20.30;99.90;;;;;;5002828;28;20041;-78
2022/07/29 11:13:49;;;;;;;6.15;3.22;;;20.40;99.90;;;;;;5000307;28;20120;-77
2022/07/29 11:16:16;;;;;;;5.55;3.15;;;20.50;99.90;;;;;;5021184;28;20056;-78
2022/07/29 11:19:10;;;;;;;5.43;3.22;;;20.70;99.90;;;;;;5019076;28;20110;-78
2022/07/29 11:21:38;;;;;;;7.28;3.17;;;20.90;99.90;;;;;;5009798;28;20107;-78
2022/07/29 11:24:28;;;;;;;6.32;3.25;;;21.20;99.90;;;;;;5021090;28;20689;-79
2022/07/29 11:27:12;;;;;;;;;;;21.50;99.90;;;;;;5020143;28;20505;-78
2022/07/29 11:29:47;;;;;;;5.20;3.15;;;21.60;99.90;;;;;;5005227;28;19925;-77
2022/07/29 11:32:15;;;;;;;7.22;3.10;;;21.70;99.90;;;;;;5014339;28;20239;-78
2022/07/29 11:34:41;;;;;;;5.53;3.00;;;21.60;99.70;;;;;;5010576;28;20054;-77
2022/07/29 11:37:08;;;;;;;4.95;2.78;;;21.60;99.90;;;;;;5012579;28;20040;-77
2022/07/29 11:39:39;;;;;;;6.13;3.08;;;21.60;99.90;;;;;;5000072;28;20046;-78
2022/07/29 11:42:20;;;;;;;6.28;2.90;;;21.60;99.90;;;;;;5018250;28;20045;-79
2022/07/29 11:44:58;;;;;;;7.55;3.85;;;21.60;99.90;;;;;;5018059;28;20451;-77
2022/07/29 11:47:26;;;;;;;7.07;2.58;;;21.70;99.90;;;;;;5035590;28;20071;-78
2022/07/29 11:49:54;;;;;;;4.63;2.78;;;21.70;99.90;;;;;;5014795;28;20046;-77
2022/07/29 11:52:31;;;;;;;7.50;3.22;;;21.80;99.90;;;;;;5009939;28;20095;-77
2022/07/29 11:55:00;;;;;;;6.45;3.25;;;21.90;99.90;;;;;;4997793;28;20056;-77
2022/07/29 11:57:27;;;;;;;5.88;3.25;;;22.20;99.90;;;;;;5008742;28;20049;-77
2022/07/29 11:59:55;;;;;;;4.65;2.75;;;22.30;99.50;;;;;;5014023;28;20041;-76
2022/07/29 12:02:20;;;;;;;5.38;2.80;;;22.20;99.50;;;;;;5018727;28;20046;-78
2022/07/29 12:04:50;;;;;;;7.45;2.97;;;22.10;99.40;;;;;;4980891;28;20091;-77
2022/07/29 12:07:16;;;;;;;;;;;22.00;99.90;;;;;;5013261;28;20412;-77
2022/07/29 12:09:52;;;;;;;5.63;3.05;;;22.10;99.90;;;;;;5016057;28;19956;-78
2022/07/29 12:12:19;;;;;;;9.43;3.35;;;22.30;99.90;;;;;;5008374;28;20462;-77
2022/07/29 12:14:51;;;;;;;7.28;3.80;;;22.30;99.90;;;;;;5000004;28;20054;-75
2022/07/29 12:17:30;;;;;;;6.82;3.25;;;22.30;98.70;;;;;;5005608;28;20095;-77
2022/07/29 12:19:58;;;;;;;6.90;2.85;;;22.30;99.60;;;;;;4992455;28;20042;-77
2022/07/29 12:22:40;;;;;;;7.82;3.42;;;22.10;99.70;;;;;;5002903;28;20120;-78
2022/07/29 12:25:15;;;;;;;9.80;2.90;;;22.10;99.90;;;;;;4995807;28;20046;-77
2022/07/29 12:27:43;;;;;;;7.10;3.00;;;22.10;99.90;;;;;;5013365;28;20144;-77
2022/07/29 12:30:17;;;;;;;6.18;3.10;;;22.20;99.30;;;;;;4996695;28;20179;-78
2022/07/29 12:32:50;;;;;;;8.43;3.08;;;22.30;98.70;;;;;;5012541;28;20543;-77
2022/07/29 12:35:21;;;;;;;6.93;2.85;;;22.40;98.10;;;;;;4990992;28;20048;-77
2022/07/29 12:37:51;;;;;;;5.28;2.25;;;22.50;98.40;;;;;;4996006;28;20037;-77
2022/07/29 12:40:17;;;;;;;9.00;2.85;;;22.70;96.90;;;;;;5008510;28;20045;-76
2022/07/29 12:43:09;;;;;;;7.35;3.03;;;22.80;97.00;;;;;;4995099;28;20200;-75
2022/07/29 12:45:37;;;;;;;7.57;2.92;;;22.80;95.50;;;;;;5007983;28;20077;-76
2022/07/29 12:48:03;;;;;;;5.93;2.40;;;22.70;95.60;;;;;;5012889;28;20144;-76
2022/07/29 12:50:29;;;;;;;5.70;2.53;;;22.60;95.70;;;;;;5000800;28;20493;-76
2022/07/29 12:53:07;;;;;;;7.63;2.60;;;22.50;95.60;;;;;;4978360;28;20076;-76
2022/07/29 12:56:01;;;;;;;7.15;2.40;;;22.40;96.00;;;;;;4994726;28;20045;-76
2022/07/29 12:58:31;;;;;;;5.45;2.08;;;22.30;98.80;;;;;;5016624;28;20054;-76
2022/07/29 13:01:14;;;;;;;6.25;2.15;;;22.40;97.70;;;;;;5012799;28;20052;-76
2022/07/29 13:03:45;;;;;;;9.25;2.80;;;22.50;97.40;;;;;;5017538;28;20044;-75
2022/07/29 13:06:40;;;;;;;7.13;2.45;;;22.60;95.90;;;;;;5007416;28;20057;-75